sensor_id;sensor_type;location;lat;lon;timestamp;P1;durP1;ratioP1;P2;durP2;ratioP2
3121;SDS011;1571;52.524;14.104;2023-02-01T00:01:22;9.33;;;1.80;;
3121;SDS011;1571;52.524;14.104;2023-02-01T00:03:51;10.03;;;2.90;;
3121;SDS011;1571;52.524;14.104;2023-02-01T00:06:19;6.20;;;2.70;;
3121;SDS011;1571;52.524;14.104;2023-02-01T00:08:47;7.80;;;2.27;;
3121;SDS011;1571;52.524;14.104;2023-02-01T00:11:17;8.00;;;1.93;;
3121;SDS011;1571;52.524;14.104;2023-02-01T00:13:45;8.27;;;1.90;;
3121;SDS011;1571;52.524;14.104;2023-02-01T00:16:14;12.93;;;2.70;;
3121;SDS011;1571;52.524;14.104;2023-02-01T00:18:44;8.17;;;3.80;;
3121;SDS011;1571;52.524;14.104;2023-02-01T00:21:14;9.70;;;2.30;;
3121;SDS011;1571;52.524;14.104;2023-02-01T00:23:45;10.80;;;1.87;;
3121;SDS011;1571;52.524;14.104;2023-02-01T00:26:16;9.47;;;2.10;;
3121;SDS011;1571;52.524;14.104;2023-02-01T00:28:48;9.27;;;2.10;;
3121;SDS011;1571;52.524;14.104;2023-02-01T00:31:16;7.50;;;1.60;;
3121;SDS011;1571;52.524;14.104;2023-02-01T00:33:46;11.77;;;2.50;;
3121;SDS011;1571;52.524;14.104;2023-02-01T00:36:14;12.17;;;2.53;;
3121;SDS011;1571;52.524;14.104;2023-02-01T00:38:43;10.50;;;2.23;;
3121;SDS011;1571;52.524;14.104;2023-02-01T00:41:12;15.80;;;2.17;;
3121;SDS011;1571;52.524;14.104;2023-02-01T00:43:43;5.40;;;2.90;;
3121;SDS011;1571;52.524;14.104;2023-02-01T00:46:13;11.37;;;2.63;;
3121;SDS011;1571;52.524;14.104;2023-02-01T00:48:42;6.60;;;2.07;;
3121;SDS011;1571;52.524;14.104;2023-02-01T00:51:12;12.37;;;1.63;;
3121;SDS011;1571;52.524;14.104;2023-02-01T00:53:41;6.37;;;1.60;;
3121;SDS011;1571;52.524;14.104;2023-02-01T00:56:09;9.03;;;2.27;;
3121;SDS011;1571;52.524;14.104;2023-02-01T00:58:38;10.23;;;2.30;;
3121;SDS011;1571;52.524;14.104;2023-02-01T01:01:09;13.97;;;2.77;;
3121;SDS011;1571;52.524;14.104;2023-02-01T01:03:39;8.83;;;2.67;;
3121;SDS011;1571;52.524;14.104;2023-02-01T01:06:10;9.53;;;1.90;;
3121;SDS011;1571;52.524;14.104;2023-02-01T01:08:40;7.00;;;2.00;;
3121;SDS011;1571;52.524;14.104;2023-02-01T01:11:10;10.27;;;2.23;;
3121;SDS011;1571;52.524;14.104;2023-02-01T01:13:41;12.73;;;1.80;;
3121;SDS011;1571;52.524;14.104;2023-02-01T01:16:11;6.70;;;2.03;;
3121;SDS011;1571;52.524;14.104;2023-02-01T01:18:39;11.53;;;2.93;;
3121;SDS011;1571;52.524;14.104;2023-02-01T01:21:09;8.70;;;1.90;;
3121;SDS011;1571;52.524;14.104;2023-02-01T01:23:39;8.23;;;2.30;;
3121;SDS011;1571;52.524;14.104;2023-02-01T01:26:07;11.23;;;3.23;;
3121;SDS011;1571;52.524;14.104;2023-02-01T01:28:36;4.23;;;1.67;;
3121;SDS011;1571;52.524;14.104;2023-02-01T01:31:07;9.70;;;2.43;;
3121;SDS011;1571;52.524;14.104;2023-02-01T01:33:37;8.23;;;2.37;;
3121;SDS011;1571;52.524;14.104;2023-02-01T01:36:07;9.90;;;2.10;;
3121;SDS011;1571;52.524;14.104;2023-02-01T01:38:38;7.50;;;1.60;;
3121;SDS011;1571;52.524;14.104;2023-02-01T01:41:07;8.17;;;3.17;;
3121;SDS011;1571;52.524;14.104;2023-02-01T01:43:48;9.77;;;1.30;;
3121;SDS011;1571;52.524;14.104;2023-02-01T01:46:19;7.10;;;1.97;;
3121;SDS011;1571;52.524;14.104;2023-02-01T01:48:51;9.93;;;2.10;;
3121;SDS011;1571;52.524;14.104;2023-02-01T01:51:28;7.63;;;1.17;;
3121;SDS011;1571;52.524;14.104;2023-02-01T01:54:01;4.93;;;1.23;;
3121;SDS011;1571;52.524;14.104;2023-02-01T01:56:31;6.53;;;2.20;;
3121;SDS011;1571;52.524;14.104;2023-02-01T01:59:02;9.40;;;1.70;;
3121;SDS011;1571;52.524;14.104;2023-02-01T02:01:32;10.63;;;3.13;;
3121;SDS011;1571;52.524;14.104;2023-02-01T02:04:02;6.60;;;1.80;;
3121;SDS011;1571;52.524;14.104;2023-02-01T02:06:33;5.03;;;1.63;;
3121;SDS011;1571;52.524;14.104;2023-02-01T02:09:06;5.17;;;1.70;;
3121;SDS011;1571;52.524;14.104;2023-02-01T02:11:35;10.33;;;2.67;;
3121;SDS011;1571;52.524;14.104;2023-02-01T02:14:03;9.77;;;2.40;;
3121;SDS011;1571;52.524;14.104;2023-02-01T02:16:46;12.53;;;2.47;;
3121;SDS011;1571;52.524;14.104;2023-02-01T02:19:42;6.87;;;1.10;;
3121;SDS011;1571;52.524;14.104;2023-02-01T02:22:48;4.10;;;1.97;;
3121;SDS011;1571;52.524;14.104;2023-02-01T02:25:59;4.30;;;1.30;;
3121;SDS011;1571;52.524;14.104;2023-02-01T02:35:14;8.43;;;2.00;;
3121;SDS011;1571;52.524;14.104;2023-02-01T02:37:52;6.90;;;1.73;;
3121;SDS011;1571;52.524;14.104;2023-02-01T02:40:27;8.00;;;2.00;;
3121;SDS011;1571;52.524;14.104;2023-02-01T02:43:03;9.03;;;2.57;;
3121;SDS011;1571;52.524;14.104;2023-02-01T02:45:59;7.93;;;1.50;;
3121;SDS011;1571;52.524;14.104;2023-02-01T02:49:00;10.33;;;2.60;;
3121;SDS011;1571;52.524;14.104;2023-02-01T02:51:32;12.80;;;2.43;;
3121;SDS011;1571;52.524;14.104;2023-02-01T02:54:24;9.00;;;2.23;;
3121;SDS011;1571;52.524;14.104;2023-02-01T02:57:16;8.97;;;1.90;;
3121;SDS011;1571;52.524;14.104;2023-02-01T03:00:06;8.30;;;2.40;;
3121;SDS011;1571;52.524;14.104;2023-02-01T03:02:55;9.60;;;1.70;;
3121;SDS011;1571;52.524;14.104;2023-02-01T03:05:42;11.00;;;2.00;;
3121;SDS011;1571;52.524;14.104;2023-02-01T03:08:15;12.60;;;1.77;;
3121;SDS011;1571;52.524;14.104;2023-02-01T03:10:48;13.33;;;1.83;;
3121;SDS011;1571;52.524;14.104;2023-02-01T03:13:25;10.53;;;2.33;;
3121;SDS011;1571;52.524;14.104;2023-02-01T03:15:59;10.50;;;2.57;;
3121;SDS011;1571;52.524;14.104;2023-02-01T03:18:33;4.73;;;1.70;;
3121;SDS011;1571;52.524;14.104;2023-02-01T03:21:08;6.50;;;1.87;;
3121;SDS011;1571;52.524;14.104;2023-02-01T03:23:42;7.37;;;2.13;;
3121;SDS011;1571;52.524;14.104;2023-02-01T03:26:13;9.90;;;2.53;;
3121;SDS011;1571;52.524;14.104;2023-02-01T03:28:45;4.43;;;1.40;;
3121;SDS011;1571;52.524;14.104;2023-02-01T03:31:17;6.80;;;1.50;;
3121;SDS011;1571;52.524;14.104;2023-02-01T03:33:46;13.60;;;3.70;;
3121;SDS011;1571;52.524;14.104;2023-02-01T03:36:18;14.40;;;5.47;;
3121;SDS011;1571;52.524;14.104;2023-02-01T03:38:55;6.60;;;2.97;;
3121;SDS011;1571;52.524;14.104;2023-02-01T03:41:32;18.57;;;4.20;;
3121;SDS011;1571;52.524;14.104;2023-02-01T03:44:07;20.93;;;4.00;;
3121;SDS011;1571;52.524;14.104;2023-02-01T03:46:40;10.40;;;3.30;;
3121;SDS011;1571;52.524;14.104;2023-02-01T03:49:17;17.33;;;5.73;;
3121;SDS011;1571;52.524;14.104;2023-02-01T03:51:54;16.97;;;3.23;;
3121;SDS011;1571;52.524;14.104;2023-02-01T03:54:25;12.97;;;3.30;;
3121;SDS011;1571;52.524;14.104;2023-02-01T03:56:55;19.20;;;4.80;;
3121;SDS011;1571;52.524;14.104;2023-02-01T03:59:27;12.00;;;3.80;;
3121;SDS011;1571;52.524;14.104;2023-02-01T04:01:57;10.53;;;2.90;;
3121;SDS011;1571;52.524;14.104;2023-02-01T04:04:25;10.43;;;2.90;;
3121;SDS011;1571;52.524;14.104;2023-02-01T04:06:55;7.90;;;2.33;;
3121;SDS011;1571;52.524;14.104;2023-02-01T04:09:25;17.20;;;2.77;;
3121;SDS011;1571;52.524;14.104;2023-02-01T04:11:53;8.47;;;2.90;;
3121;SDS011;1571;52.524;14.104;2023-02-01T04:14:21;13.40;;;2.37;;
3121;SDS011;1571;52.524;14.104;2023-02-01T04:16:50;8.67;;;2.70;;
3121;SDS011;1571;52.524;14.104;2023-02-01T04:19:18;17.63;;;3.93;;
3121;SDS011;1571;52.524;14.104;2023-02-01T04:21:46;10.17;;;2.80;;
3121;SDS011;1571;52.524;14.104;2023-02-01T04:24:14;21.17;;;2.90;;
3121;SDS011;1571;52.524;14.104;2023-02-01T04:26:44;13.00;;;3.33;;
3121;SDS011;1571;52.524;14.104;2023-02-01T04:29:12;6.87;;;1.77;;
3121;SDS011;1571;52.524;14.104;2023-02-01T04:31:41;9.40;;;2.43;;
3121;SDS011;1571;52.524;14.104;2023-02-01T04:34:10;15.03;;;3.80;;
3121;SDS011;1571;52.524;14.104;2023-02-01T04:36:38;8.20;;;1.87;;
3121;SDS011;1571;52.524;14.104;2023-02-01T04:39:08;9.57;;;2.67;;
3121;SDS011;1571;52.524;14.104;2023-02-01T04:41:36;11.20;;;3.30;;
3121;SDS011;1571;52.524;14.104;2023-02-01T04:44:06;12.10;;;2.80;;
3121;SDS011;1571;52.524;14.104;2023-02-01T04:46:37;9.87;;;2.80;;
3121;SDS011;1571;52.524;14.104;2023-02-01T04:49:07;8.07;;;2.50;;
3121;SDS011;1571;52.524;14.104;2023-02-01T04:51:36;15.07;;;3.27;;
3121;SDS011;1571;52.524;14.104;2023-02-01T04:54:05;10.07;;;2.80;;
3121;SDS011;1571;52.524;14.104;2023-02-01T04:56:34;12.43;;;2.17;;
3121;SDS011;1571;52.524;14.104;2023-02-01T04:59:02;10.70;;;2.30;;
3121;SDS011;1571;52.524;14.104;2023-02-01T05:01:32;12.73;;;3.37;;
3121;SDS011;1571;52.524;14.104;2023-02-01T05:04:00;12.07;;;2.23;;
3121;SDS011;1571;52.524;14.104;2023-02-01T05:06:28;14.70;;;2.50;;
3121;SDS011;1571;52.524;14.104;2023-02-01T05:08:57;11.60;;;2.27;;
3121;SDS011;1571;52.524;14.104;2023-02-01T05:11:25;9.73;;;2.60;;
3121;SDS011;1571;52.524;14.104;2023-02-01T05:14:10;14.10;;;3.10;;
3121;SDS011;1571;52.524;14.104;2023-02-01T05:16:40;8.70;;;1.97;;
3121;SDS011;1571;52.524;14.104;2023-02-01T05:19:08;3.60;;;2.10;;
3121;SDS011;1571;52.524;14.104;2023-02-01T05:21:37;10.13;;;2.57;;
3121;SDS011;1571;52.524;14.104;2023-02-01T05:24:05;6.67;;;1.83;;
3121;SDS011;1571;52.524;14.104;2023-02-01T05:26:40;17.33;;;3.47;;
3121;SDS011;1571;52.524;14.104;2023-02-01T05:29:09;9.87;;;2.27;;
3121;SDS011;1571;52.524;14.104;2023-02-01T05:31:38;21.33;;;2.80;;
3121;SDS011;1571;52.524;14.104;2023-02-01T05:34:08;9.10;;;2.40;;
3121;SDS011;1571;52.524;14.104;2023-02-01T05:36:36;12.03;;;2.60;;
3121;SDS011;1571;52.524;14.104;2023-02-01T05:39:04;12.70;;;3.40;;
3121;SDS011;1571;52.524;14.104;2023-02-01T05:41:32;14.60;;;3.50;;
3121;SDS011;1571;52.524;14.104;2023-02-01T05:44:00;12.10;;;3.23;;
3121;SDS011;1571;52.524;14.104;2023-02-01T05:46:29;10.17;;;2.87;;
3121;SDS011;1571;52.524;14.104;2023-02-01T05:48:57;16.70;;;3.97;;
3121;SDS011;1571;52.524;14.104;2023-02-01T05:51:27;10.40;;;3.10;;
3121;SDS011;1571;52.524;14.104;2023-02-01T05:53:55;12.30;;;3.70;;
3121;SDS011;1571;52.524;14.104;2023-02-01T05:56:23;11.57;;;3.50;;
3121;SDS011;1571;52.524;14.104;2023-02-01T05:58:51;12.67;;;3.97;;
3121;SDS011;1571;52.524;14.104;2023-02-01T06:01:20;7.97;;;3.30;;
3121;SDS011;1571;52.524;14.104;2023-02-01T06:03:48;12.33;;;2.60;;
3121;SDS011;1571;52.524;14.104;2023-02-01T06:06:16;12.70;;;2.40;;
3121;SDS011;1571;52.524;14.104;2023-02-01T06:08:47;20.37;;;3.07;;
3121;SDS011;1571;52.524;14.104;2023-02-01T06:11:15;9.10;;;2.80;;
3121;SDS011;1571;52.524;14.104;2023-02-01T06:13:58;15.17;;;3.13;;
3121;SDS011;1571;52.524;14.104;2023-02-01T06:16:26;14.70;;;2.77;;
3121;SDS011;1571;52.524;14.104;2023-02-01T06:18:55;13.87;;;3.00;;
3121;SDS011;1571;52.524;14.104;2023-02-01T06:21:23;13.60;;;3.10;;
3121;SDS011;1571;52.524;14.104;2023-02-01T06:23:53;13.43;;;3.37;;
3121;SDS011;1571;52.524;14.104;2023-02-01T06:26:21;20.93;;;4.10;;
3121;SDS011;1571;52.524;14.104;2023-02-01T06:28:50;12.77;;;3.93;;
3121;SDS011;1571;52.524;14.104;2023-02-01T06:31:18;14.90;;;5.53;;
3121;SDS011;1571;52.524;14.104;2023-02-01T06:33:47;25.57;;;3.40;;
3121;SDS011;1571;52.524;14.104;2023-02-01T06:36:15;12.80;;;3.83;;
3121;SDS011;1571;52.524;14.104;2023-02-01T06:38:45;11.07;;;3.33;;
3121;SDS011;1571;52.524;14.104;2023-02-01T06:41:15;6.43;;;3.67;;
3121;SDS011;1571;52.524;14.104;2023-02-01T06:43:43;17.53;;;3.43;;
3121;SDS011;1571;52.524;14.104;2023-02-01T06:46:12;18.73;;;4.30;;
3121;SDS011;1571;52.524;14.104;2023-02-01T06:48:41;12.67;;;3.87;;
3121;SDS011;1571;52.524;14.104;2023-02-01T06:51:18;16.60;;;3.93;;
3121;SDS011;1571;52.524;14.104;2023-02-01T06:53:47;16.90;;;3.07;;
3121;SDS011;1571;52.524;14.104;2023-02-01T06:56:17;13.30;;;4.83;;
3121;SDS011;1571;52.524;14.104;2023-02-01T06:58:46;21.80;;;6.40;;
3121;SDS011;1571;52.524;14.104;2023-02-01T07:01:15;27.80;;;5.80;;
3121;SDS011;1571;52.524;14.104;2023-02-01T07:03:46;16.67;;;5.00;;
3121;SDS011;1571;52.524;14.104;2023-02-01T07:06:15;17.30;;;5.23;;
3121;SDS011;1571;52.524;14.104;2023-02-01T07:08:43;14.80;;;4.00;;
3121;SDS011;1571;52.524;14.104;2023-02-01T07:11:12;21.43;;;5.33;;
3121;SDS011;1571;52.524;14.104;2023-02-01T07:13:43;19.97;;;3.80;;
3121;SDS011;1571;52.524;14.104;2023-02-01T07:16:13;14.70;;;4.80;;
3121;SDS011;1571;52.524;14.104;2023-02-01T07:18:43;12.30;;;4.63;;
3121;SDS011;1571;52.524;14.104;2023-02-01T07:21:12;13.03;;;4.77;;
3121;SDS011;1571;52.524;14.104;2023-02-01T07:23:41;22.00;;;4.50;;
3121;SDS011;1571;52.524;14.104;2023-02-01T07:26:10;11.33;;;4.00;;
3121;SDS011;1571;52.524;14.104;2023-02-01T07:28:40;8.63;;;3.10;;
3121;SDS011;1571;52.524;14.104;2023-02-01T07:31:11;13.77;;;4.03;;
3121;SDS011;1571;52.524;14.104;2023-02-01T07:33:42;13.90;;;3.60;;
3121;SDS011;1571;52.524;14.104;2023-02-01T07:36:11;15.83;;;4.13;;
3121;SDS011;1571;52.524;14.104;2023-02-01T07:38:40;8.20;;;3.07;;
3121;SDS011;1571;52.524;14.104;2023-02-01T07:41:09;13.50;;;3.30;;
3121;SDS011;1571;52.524;14.104;2023-02-01T07:43:37;10.50;;;3.97;;
3121;SDS011;1571;52.524;14.104;2023-02-01T07:46:06;8.97;;;3.73;;
3121;SDS011;1571;52.524;14.104;2023-02-01T07:48:36;12.87;;;3.93;;
3121;SDS011;1571;52.524;14.104;2023-02-01T07:51:05;12.37;;;3.33;;
3121;SDS011;1571;52.524;14.104;2023-02-01T07:53:36;12.63;;;4.70;;
3121;SDS011;1571;52.524;14.104;2023-02-01T07:56:09;19.63;;;4.50;;
3121;SDS011;1571;52.524;14.104;2023-02-01T07:58:39;19.73;;;3.50;;
3121;SDS011;1571;52.524;14.104;2023-02-01T08:01:11;17.57;;;5.67;;
3121;SDS011;1571;52.524;14.104;2023-02-01T08:03:48;19.27;;;6.13;;
3121;SDS011;1571;52.524;14.104;2023-02-01T08:06:18;16.93;;;5.17;;
3121;SDS011;1571;52.524;14.104;2023-02-01T08:08:47;14.90;;;4.43;;
3121;SDS011;1571;52.524;14.104;2023-02-01T08:11:16;16.50;;;5.07;;
3121;SDS011;1571;52.524;14.104;2023-02-01T08:13:45;9.97;;;4.20;;
3121;SDS011;1571;52.524;14.104;2023-02-01T08:16:14;19.87;;;5.40;;
3121;SDS011;1571;52.524;14.104;2023-02-01T08:18:44;15.83;;;4.80;;
3121;SDS011;1571;52.524;14.104;2023-02-01T08:21:14;19.10;;;4.37;;
3121;SDS011;1571;52.524;14.104;2023-02-01T08:23:44;12.83;;;3.90;;
3121;SDS011;1571;52.524;14.104;2023-02-01T08:26:13;13.17;;;4.80;;
3121;SDS011;1571;52.524;14.104;2023-02-01T08:28:46;9.90;;;3.83;;
3121;SDS011;1571;52.524;14.104;2023-02-01T08:31:16;12.70;;;3.80;;
3121;SDS011;1571;52.524;14.104;2023-02-01T08:33:48;17.47;;;4.17;;
3121;SDS011;1571;52.524;14.104;2023-02-01T08:36:19;11.60;;;2.87;;
3121;SDS011;1571;52.524;14.104;2023-02-01T08:38:50;10.67;;;2.70;;
3121;SDS011;1571;52.524;14.104;2023-02-01T08:41:20;9.33;;;3.50;;
3121;SDS011;1571;52.524;14.104;2023-02-01T08:43:49;16.90;;;4.10;;
3121;SDS011;1571;52.524;14.104;2023-02-01T08:46:18;11.57;;;3.60;;
3121;SDS011;1571;52.524;14.104;2023-02-01T08:48:46;8.73;;;3.53;;
3121;SDS011;1571;52.524;14.104;2023-02-01T08:51:16;5.63;;;3.13;;
3121;SDS011;1571;52.524;14.104;2023-02-01T08:53:47;7.33;;;3.77;;
3121;SDS011;1571;52.524;14.104;2023-02-01T08:56:16;9.63;;;3.13;;
3121;SDS011;1571;52.524;14.104;2023-02-01T08:58:45;7.20;;;2.50;;
3121;SDS011;1571;52.524;14.104;2023-02-01T09:01:14;4.03;;;1.87;;
3121;SDS011;1571;52.524;14.104;2023-02-01T09:03:43;7.00;;;2.13;;
3121;SDS011;1571;52.524;14.104;2023-02-01T09:06:13;4.07;;;2.63;;
3121;SDS011;1571;52.524;14.104;2023-02-01T09:08:42;5.97;;;2.10;;
3121;SDS011;1571;52.524;14.104;2023-02-01T09:11:13;7.10;;;2.83;;
3121;SDS011;1571;52.524;14.104;2023-02-01T09:13:43;4.47;;;1.50;;
3121;SDS011;1571;52.524;14.104;2023-02-01T09:16:11;7.60;;;2.93;;
3121;SDS011;1571;52.524;14.104;2023-02-01T09:18:39;7.70;;;2.63;;
3121;SDS011;1571;52.524;14.104;2023-02-01T09:21:27;6.13;;;2.70;;
3121;SDS011;1571;52.524;14.104;2023-02-01T09:23:56;10.90;;;2.50;;
3121;SDS011;1571;52.524;14.104;2023-02-01T09:26:26;7.17;;;1.93;;
3121;SDS011;1571;52.524;14.104;2023-02-01T09:28:58;17.10;;;4.07;;
3121;SDS011;1571;52.524;14.104;2023-02-01T09:31:27;5.70;;;1.97;;
3121;SDS011;1571;52.524;14.104;2023-02-01T09:33:55;10.50;;;2.10;;
3121;SDS011;1571;52.524;14.104;2023-02-01T09:36:24;7.43;;;2.07;;
3121;SDS011;1571;52.524;14.104;2023-02-01T09:38:55;7.67;;;2.50;;
3121;SDS011;1571;52.524;14.104;2023-02-01T09:41:29;2.83;;;2.10;;
3121;SDS011;1571;52.524;14.104;2023-02-01T09:44:08;11.47;;;3.33;;
3121;SDS011;1571;52.524;14.104;2023-02-01T09:46:45;5.53;;;2.47;;
3121;SDS011;1571;52.524;14.104;2023-02-01T09:49:15;7.90;;;3.73;;
3121;SDS011;1571;52.524;14.104;2023-02-01T09:51:49;10.30;;;3.23;;
3121;SDS011;1571;52.524;14.104;2023-02-01T09:54:21;5.10;;;2.47;;
3121;SDS011;1571;52.524;14.104;2023-02-01T09:56:54;4.47;;;2.67;;
3121;SDS011;1571;52.524;14.104;2023-02-01T09:59:29;8.80;;;3.00;;
3121;SDS011;1571;52.524;14.104;2023-02-01T10:02:01;4.43;;;2.73;;
3121;SDS011;1571;52.524;14.104;2023-02-01T10:04:33;4.67;;;2.17;;
3121;SDS011;1571;52.524;14.104;2023-02-01T10:07:03;6.60;;;1.27;;
3121;SDS011;1571;52.524;14.104;2023-02-01T10:09:44;2.80;;;1.03;;
3121;SDS011;1571;52.524;14.104;2023-02-01T10:15:35;2.40;;;1.50;;
3121;SDS011;1571;52.524;14.104;2023-02-01T10:18:15;5.63;;;2.10;;
3121;SDS011;1571;52.524;14.104;2023-02-01T10:21:00;7.27;;;1.17;;
3121;SDS011;1571;52.524;14.104;2023-02-01T10:23:48;4.20;;;1.27;;
3121;SDS011;1571;52.524;14.104;2023-02-01T10:26:44;2.73;;;1.57;;
3121;SDS011;1571;52.524;14.104;2023-02-01T10:29:17;3.67;;;1.43;;
3121;SDS011;1571;52.524;14.104;2023-02-01T10:31:47;7.23;;;1.70;;
3121;SDS011;1571;52.524;14.104;2023-02-01T10:34:18;3.70;;;1.17;;
3121;SDS011;1571;52.524;14.104;2023-02-01T10:36:50;6.43;;;1.27;;
3121;SDS011;1571;52.524;14.104;2023-02-01T10:39:22;4.80;;;1.10;;
3121;SDS011;1571;52.524;14.104;2023-02-01T10:41:51;1.43;;;1.10;;
3121;SDS011;1571;52.524;14.104;2023-02-01T10:44:21;4.03;;;2.03;;
3121;SDS011;1571;52.524;14.104;2023-02-01T10:46:52;6.70;;;1.20;;
3121;SDS011;1571;52.524;14.104;2023-02-01T10:49:22;1.53;;;0.73;;
3121;SDS011;1571;52.524;14.104;2023-02-01T10:51:58;2.00;;;0.90;;
3121;SDS011;1571;52.524;14.104;2023-02-01T10:54:34;1.20;;;0.80;;
3121;SDS011;1571;52.524;14.104;2023-02-01T10:57:06;3.33;;;1.20;;
3121;SDS011;1571;52.524;14.104;2023-02-01T10:59:37;2.93;;;0.90;;
3121;SDS011;1571;52.524;14.104;2023-02-01T11:04:58;3.00;;;1.00;;
3121;SDS011;1571;52.524;14.104;2023-02-01T11:07:29;4.00;;;0.70;;
3121;SDS011;1571;52.524;14.104;2023-02-01T11:09:57;2.43;;;0.80;;
3121;SDS011;1571;52.524;14.104;2023-02-01T11:12:28;1.10;;;0.80;;
3121;SDS011;1571;52.524;14.104;2023-02-01T11:15:00;2.00;;;1.27;;
3121;SDS011;1571;52.524;14.104;2023-02-01T11:17:33;6.43;;;0.90;;
3121;SDS011;1571;52.524;14.104;2023-02-01T11:20:04;8.20;;;1.07;;
3121;SDS011;1571;52.524;14.104;2023-02-01T11:22:45;1.70;;;0.70;;
3121;SDS011;1571;52.524;14.104;2023-02-01T11:25:14;2.47;;;1.47;;
3121;SDS011;1571;52.524;14.104;2023-02-01T11:27:45;2.87;;;1.03;;
3121;SDS011;1571;52.524;14.104;2023-02-01T11:30:25;3.63;;;1.10;;
3121;SDS011;1571;52.524;14.104;2023-02-01T11:32:59;10.20;;;3.00;;
3121;SDS011;1571;52.524;14.104;2023-02-01T11:35:32;4.20;;;1.63;;
3121;SDS011;1571;52.524;14.104;2023-02-01T11:38:10;8.20;;;2.90;;
3121;SDS011;1571;52.524;14.104;2023-02-01T11:40:42;7.23;;;1.43;;
3121;SDS011;1571;52.524;14.104;2023-02-01T11:43:13;3.57;;;0.83;;
3121;SDS011;1571;52.524;14.104;2023-02-01T11:45:54;3.80;;;0.90;;
3121;SDS011;1571;52.524;14.104;2023-02-01T11:48:24;2.20;;;1.37;;
3121;SDS011;1571;52.524;14.104;2023-02-01T11:50:57;4.37;;;1.50;;
3121;SDS011;1571;52.524;14.104;2023-02-01T11:53:36;5.80;;;1.20;;
3121;SDS011;1571;52.524;14.104;2023-02-01T11:56:17;5.60;;;1.23;;
3121;SDS011;1571;52.524;14.104;2023-02-01T11:58:55;4.40;;;0.97;;
3121;SDS011;1571;52.524;14.104;2023-02-01T12:01:50;3.87;;;0.70;;
3121;SDS011;1571;52.524;14.104;2023-02-01T12:07:42;4.93;;;1.10;;
3121;SDS011;1571;52.524;14.104;2023-02-01T12:10:30;6.90;;;1.43;;
3121;SDS011;1571;52.524;14.104;2023-02-01T12:13:09;2.67;;;1.20;;
3121;SDS011;1571;52.524;14.104;2023-02-01T12:15:51;3.90;;;1.30;;
3121;SDS011;1571;52.524;14.104;2023-02-01T12:18:43;5.13;;;1.20;;
3121;SDS011;1571;52.524;14.104;2023-02-01T12:21:33;2.30;;;0.90;;
3121;SDS011;1571;52.524;14.104;2023-02-01T12:24:25;6.73;;;2.67;;
3121;SDS011;1571;52.524;14.104;2023-02-01T12:27:11;3.50;;;1.27;;
3121;SDS011;1571;52.524;14.104;2023-02-01T12:29:53;4.63;;;1.10;;
3121;SDS011;1571;52.524;14.104;2023-02-01T12:32:42;4.83;;;1.47;;
3121;SDS011;1571;52.524;14.104;2023-02-01T12:35:26;2.43;;;1.37;;
3121;SDS011;1571;52.524;14.104;2023-02-01T12:38:11;4.93;;;1.10;;
3121;SDS011;1571;52.524;14.104;2023-02-01T12:40:54;9.00;;;1.50;;
3121;SDS011;1571;52.524;14.104;2023-02-01T12:43:36;5.17;;;1.33;;
3121;SDS011;1571;52.524;14.104;2023-02-01T12:46:08;7.43;;;1.47;;
3121;SDS011;1571;52.524;14.104;2023-02-01T12:48:46;5.10;;;1.30;;
3121;SDS011;1571;52.524;14.104;2023-02-01T12:51:24;10.20;;;1.60;;
3121;SDS011;1571;52.524;14.104;2023-02-01T12:53:57;4.97;;;1.30;;
3121;SDS011;1571;52.524;14.104;2023-02-01T12:56:31;6.37;;;1.40;;
3121;SDS011;1571;52.524;14.104;2023-02-01T12:59:04;6.43;;;1.67;;
3121;SDS011;1571;52.524;14.104;2023-02-01T13:01:40;6.60;;;1.37;;
3121;SDS011;1571;52.524;14.104;2023-02-01T13:04:15;4.80;;;1.40;;
3121;SDS011;1571;52.524;14.104;2023-02-01T13:06:50;4.80;;;1.30;;
3121;SDS011;1571;52.524;14.104;2023-02-01T13:09:24;2.80;;;1.10;;
3121;SDS011;1571;52.524;14.104;2023-02-01T13:11:55;4.57;;;1.83;;
3121;SDS011;1571;52.524;14.104;2023-02-01T13:14:28;2.43;;;1.20;;
3121;SDS011;1571;52.524;14.104;2023-02-01T13:17:04;8.67;;;2.13;;
3121;SDS011;1571;52.524;14.104;2023-02-01T13:19:41;2.73;;;1.27;;
3121;SDS011;1571;52.524;14.104;2023-02-01T13:22:15;2.80;;;1.20;;
3121;SDS011;1571;52.524;14.104;2023-02-01T13:24:48;10.07;;;1.33;;
3121;SDS011;1571;52.524;14.104;2023-02-01T13:27:19;3.63;;;0.63;;
3121;SDS011;1571;52.524;14.104;2023-02-01T13:29:50;0.73;;;0.60;;
3121;SDS011;1571;52.524;14.104;2023-02-01T13:32:31;2.10;;;1.10;;
3121;SDS011;1571;52.524;14.104;2023-02-01T13:35:43;3.13;;;0.40;;
3121;SDS011;1571;52.524;14.104;2023-02-01T13:38:33;1.00;;;0.60;;
3121;SDS011;1571;52.524;14.104;2023-02-01T13:41:24;1.13;;;0.80;;
3121;SDS011;1571;52.524;14.104;2023-02-01T13:43:55;1.37;;;0.67;;
3121;SDS011;1571;52.524;14.104;2023-02-01T13:46:28;1.27;;;0.70;;
3121;SDS011;1571;52.524;14.104;2023-02-01T13:48:59;2.03;;;0.60;;
3121;SDS011;1571;52.524;14.104;2023-02-01T13:51:34;2.10;;;0.80;;
3121;SDS011;1571;52.524;14.104;2023-02-01T13:54:06;3.13;;;0.67;;
3121;SDS011;1571;52.524;14.104;2023-02-01T13:56:41;0.60;;;0.57;;
3121;SDS011;1571;52.524;14.104;2023-02-01T14:08:23;6.80;;;1.07;;
3121;SDS011;1571;52.524;14.104;2023-02-01T14:11:05;1.30;;;1.20;;
3121;SDS011;1571;52.524;14.104;2023-02-01T14:13:35;1.00;;;0.80;;
3121;SDS011;1571;52.524;14.104;2023-02-01T14:16:11;2.00;;;1.17;;
3121;SDS011;1571;52.524;14.104;2023-02-01T14:18:58;3.17;;;0.70;;
3121;SDS011;1571;52.524;14.104;2023-02-01T14:21:28;2.83;;;0.67;;
3121;SDS011;1571;52.524;14.104;2023-02-01T14:24:00;5.33;;;1.93;;
3121;SDS011;1571;52.524;14.104;2023-02-01T14:26:43;3.07;;;1.00;;
3121;SDS011;1571;52.524;14.104;2023-02-01T14:29:20;1.97;;;1.10;;
3121;SDS011;1571;52.524;14.104;2023-02-01T14:31:54;2.20;;;0.93;;
3121;SDS011;1571;52.524;14.104;2023-02-01T14:34:31;4.70;;;1.63;;
3121;SDS011;1571;52.524;14.104;2023-02-01T14:37:05;2.70;;;1.23;;
3121;SDS011;1571;52.524;14.104;2023-02-01T14:39:37;9.50;;;4.67;;
3121;SDS011;1571;52.524;14.104;2023-02-01T14:42:26;4.73;;;1.40;;
3121;SDS011;1571;52.524;14.104;2023-02-01T14:51:02;24.30;;;12.63;;
3121;SDS011;1571;52.524;14.104;2023-02-01T14:53:34;16.00;;;6.93;;
3121;SDS011;1571;52.524;14.104;2023-02-01T14:56:05;29.10;;;11.70;;
3121;SDS011;1571;52.524;14.104;2023-02-01T14:58:41;5.57;;;2.97;;
3121;SDS011;1571;52.524;14.104;2023-02-01T15:01:15;4.10;;;1.30;;
3121;SDS011;1571;52.524;14.104;2023-02-01T15:03:50;8.00;;;1.50;;
3121;SDS011;1571;52.524;14.104;2023-02-01T15:06:27;6.50;;;2.37;;
3121;SDS011;1571;52.524;14.104;2023-02-01T15:08:59;6.90;;;3.97;;
3121;SDS011;1571;52.524;14.104;2023-02-01T15:11:31;8.07;;;2.40;;
3121;SDS011;1571;52.524;14.104;2023-02-01T15:14:00;4.30;;;1.40;;
3121;SDS011;1571;52.524;14.104;2023-02-01T15:16:28;4.87;;;1.23;;
3121;SDS011;1571;52.524;14.104;2023-02-01T15:19:09;4.10;;;1.40;;
3121;SDS011;1571;52.524;14.104;2023-02-01T15:21:42;4.10;;;1.10;;
3121;SDS011;1571;52.524;14.104;2023-02-01T15:24:13;3.43;;;1.47;;
3121;SDS011;1571;52.524;14.104;2023-02-01T15:26:46;3.50;;;1.60;;
3121;SDS011;1571;52.524;14.104;2023-02-01T15:29:16;9.13;;;2.77;;
3121;SDS011;1571;52.524;14.104;2023-02-01T15:31:45;10.93;;;3.60;;
3121;SDS011;1571;52.524;14.104;2023-02-01T15:34:15;9.90;;;4.53;;
3121;SDS011;1571;52.524;14.104;2023-02-01T15:36:44;12.20;;;6.27;;
3121;SDS011;1571;52.524;14.104;2023-02-01T15:39:28;11.00;;;4.83;;
3121;SDS011;1571;52.524;14.104;2023-02-01T15:42:00;11.57;;;5.10;;
3121;SDS011;1571;52.524;14.104;2023-02-01T15:44:38;6.27;;;4.23;;
3121;SDS011;1571;52.524;14.104;2023-02-01T15:47:13;6.13;;;3.10;;
3121;SDS011;1571;52.524;14.104;2023-02-01T15:49:44;23.93;;;3.63;;
3121;SDS011;1571;52.524;14.104;2023-02-01T15:52:20;6.20;;;3.00;;
3121;SDS011;1571;52.524;14.104;2023-02-01T15:54:53;10.13;;;3.13;;
3121;SDS011;1571;52.524;14.104;2023-02-01T15:57:25;7.10;;;2.40;;
3121;SDS011;1571;52.524;14.104;2023-02-01T16:00:00;5.43;;;3.10;;
3121;SDS011;1571;52.524;14.104;2023-02-01T16:02:41;19.47;;;4.40;;